createdAt,value
2019-03-21T00:00:26.905Z,102796.02
2019-03-21T00:02:55.589Z,102802.69
2019-03-21T00:05:26.529Z,102803.18
2019-03-21T00:07:55.316Z,102794.84
2019-03-21T00:10:33.219Z,102802.34
2019-03-21T00:13:02.007Z,102803.48
2019-03-21T00:15:48.613Z,102807.64
2019-03-21T00:18:17.506Z,102809.20
2019-03-21T00:20:46.188Z,102797.62
2019-03-21T00:23:14.842Z,102798.95
2019-03-21T00:25:43.566Z,102797.50
2019-03-21T00:28:12.352Z,102807.03
2019-03-21T00:30:40.932Z,102799.03
2019-03-21T00:33:09.824Z,102801.73
2019-03-21T00:35:38.792Z,102805.05
2019-03-21T00:38:07.706Z,102802.27
2019-03-21T00:40:39.565Z,102796.52
2019-03-21T00:43:10.789Z,102793.66
2019-03-21T00:45:39.375Z,102806.61
2019-03-21T00:48:10.614Z,102800.52
2019-03-21T00:50:39.472Z,102803.33
2019-03-21T00:53:08.421Z,102803.87
2019-03-21T00:55:40.388Z,102809.87
2019-03-21T00:58:09.839Z,102800.83
2019-03-21T01:00:53.433Z,102799.95
2019-03-21T01:03:22.212Z,102802.98
2019-03-21T01:05:50.999Z,102811.02
2019-03-21T01:08:19.788Z,102803.52
2019-03-21T01:10:49.490Z,102799.98
2019-03-21T01:13:18.188Z,102799.15
2019-03-21T01:15:46.770Z,102799.00
2019-03-21T01:18:15.454Z,102787.61
2019-03-21T01:20:44.120Z,102788.37
2019-03-21T01:23:12.825Z,102788.98
2019-03-21T01:25:47.448Z,102784.86
2019-03-21T01:28:16.137Z,102792.67
2019-03-21T01:30:44.691Z,102790.88
2019-03-21T01:33:13.405Z,102787.25
2019-03-21T01:35:42.586Z,102788.93
2019-03-21T01:38:11.300Z,102790.16
2019-03-21T01:40:55.027Z,102780.07
2019-03-21T01:43:23.813Z,102782.54
2019-03-21T01:45:52.478Z,102773.78
2019-03-21T01:48:21.287Z,102775.08
2019-03-21T01:50:49.972Z,102769.02
2019-03-21T01:53:18.650Z,102764.06
2019-03-21T01:55:47.219Z,102764.48
2019-03-21T01:58:15.916Z,102766.05
2019-03-21T02:00:47.176Z,102771.57
2019-03-21T02:03:15.961Z,102770.69
2019-03-21T02:05:44.509Z,102761.38
2019-03-21T02:08:13.331Z,102759.13
2019-03-21T02:10:41.882Z,102762.34
2019-03-21T02:13:10.605Z,102753.75
2019-03-21T02:15:40.803Z,102753.74
2019-03-21T02:18:09.814Z,102754.40
2019-03-21T02:20:38.398Z,102753.02
2019-03-21T02:23:07.189Z,102751.62
2019-03-21T02:25:44.476Z,102748.27
2019-03-21T02:28:13.262Z,102749.87
2019-03-21T02:30:50.243Z,102761.98
2019-03-21T02:33:22.122Z,102760.00
2019-03-21T02:35:50.795Z,102759.34
2019-03-21T02:38:19.582Z,102746.66
2019-03-21T02:40:49.906Z,102747.03
2019-03-21T02:43:18.691Z,102739.63
2019-03-21T02:45:47.273Z,102748.27
2019-03-21T02:48:16.073Z,102735.40
2019-03-21T02:50:45.455Z,102739.16
2019-03-21T02:53:14.151Z,102737.61
2019-03-21T02:55:42.736Z,102740.81
2019-03-21T02:58:11.427Z,102741.07
2019-03-21T03:00:44.898Z,102739.16
2019-03-21T03:03:13.704Z,102743.05
2019-03-21T03:05:42.296Z,102745.30
2019-03-21T03:08:11.078Z,102745.76
2019-03-21T03:10:48.307Z,102745.06
2019-03-21T03:13:16.945Z,102742.18
2019-03-21T03:15:45.846Z,102744.34
2019-03-21T03:18:22.086Z,102745.05
2019-03-21T03:20:50.890Z,102745.64
2019-03-21T03:23:19.678Z,102742.06
2019-03-21T03:25:50.995Z,102743.28
2019-03-21T03:28:27.804Z,102745.52
2019-03-21T03:30:59.682Z,102751.49
2019-03-21T03:33:28.882Z,102759.48
2019-03-21T03:35:57.882Z,102759.48
2019-03-21T03:38:26.425Z,102764.11
2019-03-21T03:41:00.547Z,102759.64
2019-03-21T03:43:29.225Z,102761.25
2019-03-21T03:45:57.859Z,102763.62
2019-03-21T03:48:28.070Z,102762.34
2019-03-21T03:50:56.728Z,102758.39
2019-03-21T03:53:25.510Z,102762.37
2019-03-21T03:55:54.303Z,102759.07
2019-03-21T03:58:28.379Z,102753.27
2019-03-21T04:00:57.404Z,102755.07
2019-03-21T04:03:27.969Z,102757.70
2019-03-21T04:05:57.062Z,102765.36
2019-03-21T04:08:25.609Z,102764.48
2019-03-21T04:10:56.145Z,102770.14
2019-03-21T04:13:24.724Z,102768.59
2019-03-21T04:15:54.235Z,102766.27
2019-03-21T04:18:24.787Z,102769.00
2019-03-21T04:21:08.165Z,102761.91
2019-03-21T04:23:36.881Z,102764.44
2019-03-21T04:26:26.808Z,102765.33
2019-03-21T04:28:55.421Z,102763.65
2019-03-21T04:31:24.132Z,102764.41
2019-03-21T04:33:56.101Z,102764.44
2019-03-21T04:36:24.780Z,102770.55
2019-03-21T04:38:53.466Z,102770.57
2019-03-21T04:41:22.255Z,102771.22
2019-03-21T04:43:50.915Z,102775.27
2019-03-21T04:46:19.624Z,102773.24
2019-03-21T04:48:48.410Z,102775.49
2019-03-21T04:51:16.993Z,102774.00
2019-03-21T04:53:45.662Z,102777.66
2019-03-21T04:56:14.262Z,102781.53
2019-03-21T04:58:42.921Z,102778.81
2019-03-21T05:01:11.641Z,102784.13
2019-03-21T05:03:40.320Z,102778.19
2019-03-21T05:06:09.005Z,102775.25
2019-03-21T05:08:37.691Z,102769.31
2019-03-21T05:11:06.274Z,102771.88
2019-03-21T05:13:34.961Z,102775.56
2019-03-21T05:16:14.034Z,102775.33
2019-03-21T05:18:46.360Z,102782.23
2019-03-21T05:21:20.790Z,102784.55
2019-03-21T05:23:49.469Z,102781.89
2019-03-21T05:26:18.255Z,102784.55
2019-03-21T05:28:46.863Z,102785.87
2019-03-21T05:31:31.070Z,102783.14
2019-03-21T05:33:59.745Z,102776.44
2019-03-21T05:36:28.359Z,102780.09
2019-03-21T05:38:57.148Z,102777.81
2019-03-21T05:41:25.945Z,102780.87
2019-03-21T05:44:03.840Z,102775.80
2019-03-21T05:46:33.253Z,102779.07
2019-03-21T05:49:01.925Z,102779.37
2019-03-21T05:51:30.533Z,102781.58
2019-03-21T05:53:59.095Z,102786.35
2019-03-21T05:56:27.777Z,102783.19
2019-03-21T05:58:56.565Z,102784.67
2019-03-21T06:01:25.353Z,102789.09
2019-03-21T06:03:54.447Z,102795.29
2019-03-21T06:06:58.264Z,102797.02
2019-03-21T06:09:26.922Z,102805.13
2019-03-21T06:11:58.804Z,102795.03
2019-03-21T06:14:28.509Z,102793.02
2019-03-21T06:16:57.097Z,102791.98
2019-03-21T06:19:34.895Z,102801.44
2019-03-21T06:22:09.625Z,102800.06
2019-03-21T06:24:59.710Z,102815.45
2019-03-21T06:27:28.399Z,102814.95
2019-03-21T06:29:57.081Z,102817.95
2019-03-21T06:32:27.302Z,102818.80
2019-03-21T06:34:57.114Z,102824.21
2019-03-21T06:37:28.665Z,102819.14
2019-03-21T06:39:56.637Z,102820.94
2019-03-21T06:42:25.428Z,102822.98
2019-03-21T06:44:54.106Z,102826.53
2019-03-21T06:47:22.882Z,102819.67
2019-03-21T06:49:51.486Z,102827.02
2019-03-21T06:52:20.478Z,102836.44
2019-03-21T06:54:49.140Z,102845.81
2019-03-21T06:57:17.851Z,102842.69
2019-03-21T06:59:46.534Z,102843.56
2019-03-21T07:02:15.221Z,102842.58
2019-03-21T07:04:43.803Z,102846.41
2019-03-21T07:07:12.599Z,102843.72
2019-03-21T07:09:41.280Z,102849.02
2019-03-21T07:12:10.064Z,102850.45
2019-03-21T07:14:38.646Z,102853.13
2019-03-21T07:17:07.331Z,102847.94
2019-03-21T07:19:36.018Z,102857.89
2019-03-21T07:22:04.791Z,102865.66
2019-03-21T07:24:33.596Z,102866.13
2019-03-21T07:27:02.286Z,102870.73
2019-03-21T07:29:31.072Z,102860.29
2019-03-21T07:31:59.754Z,102870.66
2019-03-21T07:34:28.442Z,102872.03
2019-03-21T07:36:57.237Z,102877.17
2019-03-21T07:39:28.584Z,102874.88
2019-03-21T07:41:56.316Z,102880.38
2019-03-21T07:44:26.973Z,102881.82
2019-03-21T07:46:55.699Z,102884.33
2019-03-21T07:49:24.345Z,102877.09
2019-03-21T07:51:57.104Z,102876.74
2019-03-21T07:54:25.707Z,102877.97
2019-03-21T07:56:54.497Z,102883.83
2019-03-21T07:59:23.234Z,102887.34
2019-03-21T08:01:51.970Z,102880.78
2019-03-21T08:04:20.655Z,102879.10
2019-03-21T08:06:49.361Z,102885.09
2019-03-21T08:09:18.436Z,102893.67
2019-03-21T08:11:47.229Z,102889.62
2019-03-21T08:14:15.918Z,102892.59
2019-03-21T08:16:44.749Z,102881.92
2019-03-21T08:19:13.490Z,102890.27
2019-03-21T08:21:42.071Z,102887.19
2019-03-21T08:24:10.858Z,102889.85
2019-03-21T08:26:39.440Z,102889.55
2019-03-21T08:29:08.228Z,102894.05
2019-03-21T08:31:36.890Z,102887.43
2019-03-21T08:34:05.808Z,102894.63
2019-03-21T08:36:34.492Z,102900.64
2019-03-21T08:39:04.820Z,102893.69
2019-03-21T08:41:33.398Z,102899.72
2019-03-21T08:44:02.084Z,102902.00
2019-03-21T08:46:30.769Z,102898.28
2019-03-21T08:48:59.558Z,102906.38
2019-03-21T08:51:28.346Z,102899.03
2019-03-21T08:53:57.133Z,102899.08
2019-03-21T08:56:25.808Z,102901.28
2019-03-21T08:58:54.507Z,102900.31
2019-03-21T09:01:23.090Z,102910.03
2019-03-21T09:03:51.878Z,102902.29
2019-03-21T09:06:20.460Z,102900.52
2019-03-21T09:08:49.251Z,102907.69
2019-03-21T09:11:17.848Z,102904.94
2019-03-21T09:13:46.620Z,102905.38
2019-03-21T09:16:15.208Z,102912.58
2019-03-21T09:18:43.991Z,102908.77
2019-03-21T09:21:19.635Z,102907.85
2019-03-21T09:23:42.900Z,102905.20
2019-03-21T09:26:14.391Z,102905.88
2019-03-21T09:28:43.343Z,102917.13
2019-03-21T09:31:11.972Z,102910.00
2019-03-21T09:33:40.818Z,102912.60
2019-03-21T09:36:09.400Z,102910.78
2019-03-21T09:38:38.187Z,102907.44
2019-03-21T09:41:06.873Z,102905.22
2019-03-21T09:43:35.665Z,102910.59
2019-03-21T09:46:04.449Z,102911.13
2019-03-21T09:48:33.237Z,102900.98
2019-03-21T09:51:01.822Z,102898.66
2019-03-21T09:53:30.502Z,102907.14
2019-03-21T09:56:01.173Z,102900.96
2019-03-21T09:58:29.723Z,102900.42
2019-03-21T10:00:58.391Z,102897.68
2019-03-21T10:03:27.108Z,102900.28
2019-03-21T10:05:55.781Z,102905.90
2019-03-21T10:08:24.465Z,102894.75
2019-03-21T10:10:53.022Z,102895.91
2019-03-21T10:13:21.737Z,102902.88
2019-03-21T10:15:50.419Z,102897.47
2019-03-21T10:18:19.121Z,102890.05
2019-03-21T10:20:47.748Z,102898.03
2019-03-21T10:23:16.476Z,102903.86
2019-03-21T10:25:45.061Z,102899.95
2019-03-21T10:28:13.847Z,102894.75
2019-03-21T10:30:43.146Z,102900.37
2019-03-21T10:33:13.265Z,102900.45
2019-03-21T10:35:42.260Z,102900.77
2019-03-21T10:38:11.278Z,102900.16
2019-03-21T10:40:40.142Z,102898.11
2019-03-21T10:43:10.500Z,102901.37
2019-03-21T10:45:39.680Z,102898.49
2019-03-21T10:48:08.454Z,102886.47
2019-03-21T10:50:41.689Z,102895.50
2019-03-21T10:53:11.578Z,102887.41
2019-03-21T10:55:40.654Z,102898.66
2019-03-21T10:58:09.672Z,102893.75
2019-03-21T11:00:38.542Z,102891.54
2019-03-21T11:03:07.533Z,102891.86
2019-03-21T11:05:36.267Z,102889.08
2019-03-21T11:08:05.006Z,102879.67
2019-03-21T11:10:33.590Z,102883.20
2019-03-21T11:13:02.375Z,102888.02
2019-03-21T11:15:31.061Z,102887.19
2019-03-21T11:17:59.752Z,102883.82
2019-03-21T11:20:30.270Z,102878.02
2019-03-21T11:22:59.268Z,102878.70
2019-03-21T11:25:28.057Z,102879.45
2019-03-21T11:27:56.813Z,102878.06
2019-03-21T11:30:33.585Z,102883.34
2019-03-21T11:33:03.033Z,102874.86
2019-03-21T11:35:35.905Z,102873.03
2019-03-21T11:38:05.640Z,102869.12
2019-03-21T11:40:34.315Z,102863.48
2019-03-21T11:43:04.231Z,102863.33
2019-03-21T11:45:34.964Z,102857.55
2019-03-21T11:48:05.490Z,102854.61
2019-03-21T11:50:34.646Z,102859.59
2019-03-21T11:53:03.575Z,102858.92
2019-03-21T11:55:37.267Z,102858.38
2019-03-21T11:58:10.506Z,102853.91
2019-03-21T12:00:44.056Z,102855.02
2019-03-21T12:03:12.031Z,102854.70
2019-03-21T12:05:40.730Z,102855.77
2019-03-21T12:08:09.321Z,102857.72
2019-03-21T12:10:37.993Z,102854.79
2019-03-21T12:13:06.670Z,102850.91
2019-03-21T12:15:35.364Z,102847.23
2019-03-21T12:18:04.256Z,102844.66
2019-03-21T12:20:33.523Z,102850.17
2019-03-21T12:23:02.242Z,102839.93
2019-03-21T12:25:31.249Z,102844.84
2019-03-21T12:28:01.465Z,102840.17
2019-03-21T12:30:35.869Z,102839.78
2019-03-21T12:33:04.927Z,102840.34
2019-03-21T12:35:33.651Z,102842.25
2019-03-21T12:38:03.053Z,102834.30
2019-03-21T12:40:34.212Z,102838.80
2019-03-21T12:43:05.590Z,102831.45
2019-03-21T12:45:35.888Z,102827.97
2019-03-21T12:48:05.008Z,102832.67
2019-03-21T12:50:33.754Z,102825.31
2019-03-21T12:53:02.557Z,102821.12
2019-03-21T12:55:31.452Z,102813.53
2019-03-21T12:58:03.026Z,102813.48
2019-03-21T13:00:39.143Z,102815.38
2019-03-21T13:03:08.359Z,102805.83
2019-03-21T13:05:40.631Z,102805.59
2019-03-21T13:08:09.604Z,102801.05
2019-03-21T13:10:38.496Z,102806.73
2019-03-21T13:13:07.700Z,102807.14
2019-03-21T13:15:37.000Z,102795.43
2019-03-21T13:18:06.404Z,102792.22
2019-03-21T13:20:34.993Z,102790.15
2019-03-21T13:23:04.202Z,102785.05
2019-03-21T13:25:33.452Z,102786.33
2019-03-21T13:28:02.677Z,102789.55
2019-03-21T13:30:31.362Z,102783.98
2019-03-21T13:33:00.151Z,102776.56
2019-03-21T13:35:32.865Z,102778.23
2019-03-21T13:37:59.364Z,102780.45
2019-03-21T13:40:28.082Z,102783.35
2019-03-21T13:42:56.735Z,102780.25
2019-03-21T13:45:25.422Z,102783.56
2019-03-21T13:47:54.169Z,102775.84
2019-03-21T13:50:22.749Z,102772.09
2019-03-21T13:52:51.377Z,102771.45
2019-03-21T13:55:20.163Z,102766.25
2019-03-21T13:57:48.849Z,102760.45
2019-03-21T14:00:19.662Z,102764.66
2019-03-21T14:02:48.328Z,102766.00
2019-03-21T14:05:17.089Z,102766.30
2019-03-21T14:07:45.946Z,102759.36
2019-03-21T14:10:14.734Z,102753.30
2019-03-21T14:12:43.523Z,102755.55
2019-03-21T14:15:14.973Z,102751.83
2019-03-21T14:17:43.965Z,102749.49
2019-03-21T14:20:14.393Z,102743.52
2019-03-21T14:22:43.080Z,102742.80
2019-03-21T14:25:11.867Z,102744.64
2019-03-21T14:27:40.556Z,102734.18
2019-03-21T14:30:17.049Z,102737.91
2019-03-21T14:32:46.118Z,102737.12
2019-03-21T14:35:20.658Z,102734.25
2019-03-21T14:37:49.427Z,102735.63
2019-03-21T14:40:18.318Z,102728.01
2019-03-21T14:42:47.224Z,102731.81
2019-03-21T14:45:16.890Z,102730.33
2019-03-21T14:47:45.805Z,102731.80
2019-03-21T14:50:16.500Z,102726.48
2019-03-21T14:52:45.228Z,102729.01
2019-03-21T14:55:15.552Z,102724.85
2019-03-21T14:57:44.346Z,102729.77
2019-03-21T15:00:19.858Z,102731.36
2019-03-21T15:02:48.467Z,102726.90
2019-03-21T15:05:17.214Z,102737.41
2019-03-21T15:07:46.046Z,102732.74
2019-03-21T15:10:18.534Z,102726.77
2019-03-21T15:12:47.207Z,102720.12
2019-03-21T15:15:16.510Z,102724.63
2019-03-21T15:17:45.248Z,102728.01
2019-03-21T15:20:17.617Z,102724.20
2019-03-21T15:22:46.389Z,102726.25
2019-03-21T15:25:15.037Z,102716.73
2019-03-21T15:27:43.724Z,102724.16
2019-03-21T15:30:18.339Z,102723.55
2019-03-21T15:32:47.085Z,102721.59
2019-03-21T15:35:17.430Z,102722.27
2019-03-21T15:37:46.246Z,102719.12
2019-03-21T15:40:16.075Z,102723.25
2019-03-21T15:42:44.850Z,102720.31
2019-03-21T15:45:22.617Z,102727.90
2019-03-21T15:47:47.860Z,102721.84
2019-03-21T15:50:28.314Z,102719.08
2019-03-21T15:52:57.614Z,102711.82
2019-03-21T15:55:26.302Z,102714.77
2019-03-21T15:57:54.963Z,102709.56
2019-03-21T16:00:40.362Z,102707.36
2019-03-21T16:03:13.145Z,102706.15
2019-03-21T16:05:42.511Z,102702.05
2019-03-21T16:08:11.334Z,102701.59
2019-03-21T16:10:42.706Z,102697.66
2019-03-21T16:13:19.512Z,102701.41
2019-03-21T16:15:48.761Z,102695.55
2019-03-21T16:18:17.647Z,102694.72
2019-03-21T16:20:46.331Z,102696.88
2019-03-21T16:23:15.018Z,102697.17
2019-03-21T16:25:43.912Z,102696.23
2019-03-21T16:28:12.632Z,102688.45
2019-03-21T16:30:41.485Z,102689.68
2019-03-21T16:33:11.830Z,102686.88
2019-03-21T16:35:44.243Z,102687.84
2019-03-21T16:38:17.226Z,102683.52
2019-03-21T16:40:46.060Z,102681.79
2019-03-21T16:43:14.744Z,102688.41
2019-03-21T16:45:44.640Z,102678.63
2019-03-21T16:48:13.346Z,102674.42
2019-03-21T16:50:42.039Z,102675.08
2019-03-21T16:53:10.715Z,102675.76
2019-03-21T16:55:39.401Z,102673.72
2019-03-21T16:58:08.189Z,102672.84
2019-03-21T17:00:36.774Z,102665.28
2019-03-21T17:03:05.562Z,102669.84
2019-03-21T17:05:34.248Z,102668.30
2019-03-21T17:08:11.099Z,102665.79
2019-03-21T17:10:33.359Z,102677.06
2019-03-21T17:13:04.753Z,102680.19
2019-03-21T17:15:32.473Z,102684.02
2019-03-21T17:18:01.180Z,102687.03
2019-03-21T17:20:29.983Z,102692.59
2019-03-21T17:22:58.617Z,102688.31
2019-03-21T17:25:27.418Z,102682.08
2019-03-21T17:27:56.106Z,102684.36
2019-03-21T17:30:24.893Z,102681.30
2019-03-21T17:32:53.580Z,102681.09
2019-03-21T17:35:22.264Z,102680.25
2019-03-21T17:37:51.052Z,102681.14
2019-03-21T17:40:19.655Z,102678.02
2019-03-21T17:42:48.219Z,102683.74
2019-03-21T17:45:18.138Z,102675.41
2019-03-21T17:47:46.716Z,102674.34
2019-03-21T17:50:17.345Z,102670.80
2019-03-21T17:52:46.175Z,102671.41
2019-03-21T17:55:15.025Z,102672.25
2019-03-21T17:57:43.758Z,102674.88
2019-03-21T18:00:22.320Z,102680.96
2019-03-21T18:02:51.151Z,102682.08
2019-03-21T18:05:19.913Z,102679.70
2019-03-21T18:07:49.750Z,102680.45
2019-03-21T18:10:34.747Z,102683.97
2019-03-21T18:13:04.510Z,102683.86
2019-03-21T18:15:33.338Z,102678.91
2019-03-21T18:18:02.616Z,102680.73
2019-03-21T18:20:31.890Z,102675.52
2019-03-21T18:23:00.674Z,102672.03
2019-03-21T18:25:29.361Z,102676.64
2019-03-21T18:27:58.147Z,102680.36
2019-03-21T18:30:26.731Z,102683.92
2019-03-21T18:32:55.522Z,102687.08
2019-03-21T18:35:24.204Z,102694.56
2019-03-21T18:37:53.196Z,102692.30
2019-03-21T18:40:21.780Z,102691.34
2019-03-21T18:42:50.575Z,102687.75
2019-03-21T18:45:19.358Z,102689.53
2019-03-21T18:47:48.135Z,102691.55
2019-03-21T18:50:17.247Z,102685.95
2019-03-21T18:52:46.131Z,102686.69
2019-03-21T18:55:15.232Z,102688.81
2019-03-21T18:57:54.472Z,102685.11
2019-03-21T19:00:23.979Z,102690.25
2019-03-21T19:02:53.929Z,102696.33
2019-03-21T19:05:22.884Z,102702.10
2019-03-21T19:07:51.765Z,102705.36
2019-03-21T19:10:20.658Z,102717.06
2019-03-21T19:12:49.442Z,102707.31
2019-03-21T19:15:18.671Z,102709.37
2019-03-21T19:17:51.832Z,102710.72
2019-03-21T19:20:39.041Z,102708.88
2019-03-21T19:23:13.781Z,102711.15
2019-03-21T19:25:42.359Z,102720.16
2019-03-21T19:28:11.152Z,102713.02
2019-03-21T19:30:43.840Z,102721.20
2019-03-21T19:33:12.520Z,102719.42
2019-03-21T19:35:46.823Z,102725.89
2019-03-21T19:38:15.223Z,102739.06
2019-03-21T19:40:44.004Z,102731.64
2019-03-21T19:43:13.218Z,102727.95
2019-03-21T19:45:42.398Z,102725.45
2019-03-21T19:48:11.307Z,102724.80
2019-03-21T19:50:41.215Z,102722.45
2019-03-21T19:53:09.993Z,102726.20
2019-03-21T19:55:39.103Z,102731.52
2019-03-21T19:58:07.979Z,102725.08
2019-03-21T20:00:36.871Z,102726.34
2019-03-21T20:03:05.756Z,102719.38
2019-03-21T20:05:34.759Z,102720.84
2019-03-21T20:08:05.283Z,102721.54
2019-03-21T20:10:34.068Z,102714.91
2019-03-21T20:13:02.751Z,102722.57
2019-03-21T20:15:31.541Z,102726.21
2019-03-21T20:18:00.227Z,102726.45
2019-03-21T20:20:31.021Z,102717.95
2019-03-21T20:22:59.546Z,102719.00
2019-03-21T20:25:28.331Z,102725.64
2019-03-21T20:27:57.126Z,102726.64
2019-03-21T20:30:25.907Z,102729.23
2019-03-21T20:32:54.591Z,102730.22
2019-03-21T20:35:23.279Z,102732.10
2019-03-21T20:37:51.967Z,102724.97
2019-03-21T20:40:20.958Z,102732.11
2019-03-21T20:42:49.644Z,102730.95
2019-03-21T20:45:23.823Z,102729.68
2019-03-21T20:47:52.443Z,102725.95
2019-03-21T20:50:21.232Z,102734.04
2019-03-21T20:52:49.916Z,102732.91
2019-03-21T20:55:18.600Z,102732.77
2019-03-21T20:57:47.390Z,102729.65
2019-03-21T21:00:19.048Z,102729.39
2019-03-21T21:02:50.783Z,102725.81
2019-03-21T21:05:19.598Z,102719.65
2019-03-21T21:07:48.378Z,102720.38
2019-03-21T21:10:17.173Z,102725.03
2019-03-21T21:12:45.852Z,102727.52
2019-03-21T21:15:17.200Z,102725.77
2019-03-21T21:17:45.997Z,102730.82
2019-03-21T21:20:18.364Z,102737.74
2019-03-21T21:22:47.170Z,102745.23
2019-03-21T21:25:16.350Z,102751.00
2019-03-21T21:27:49.854Z,102751.84
2019-03-21T21:30:18.646Z,102753.61
2019-03-21T21:32:47.322Z,102760.09
2019-03-21T21:35:16.011Z,102763.27
2019-03-21T21:37:45.420Z,102749.12
2019-03-21T21:40:15.845Z,102752.56
2019-03-21T21:42:44.624Z,102757.49
2019-03-21T21:45:15.971Z,102752.05
2019-03-21T21:47:45.171Z,102759.16
2019-03-21T21:50:15.391Z,102759.16
2019-03-21T21:52:44.148Z,102755.61
2019-03-21T21:55:13.192Z,102752.16
2019-03-21T21:57:42.063Z,102753.07
2019-03-21T22:00:14.780Z,102743.09
2019-03-21T22:02:46.908Z,102741.90
2019-03-21T22:05:15.902Z,102743.38
2019-03-21T22:07:44.699Z,102744.42
2019-03-21T22:10:13.794Z,102753.02
2019-03-21T22:12:42.586Z,102747.05
2019-03-21T22:15:13.565Z,102744.13
2019-03-21T22:17:43.133Z,102734.39
2019-03-21T22:20:13.514Z,102745.45
2019-03-21T22:22:42.627Z,102743.26
2019-03-21T22:25:11.853Z,102745.58
2019-03-21T22:27:40.633Z,102746.71
2019-03-21T22:30:14.708Z,102745.27
2019-03-21T22:32:43.432Z,102741.38
2019-03-21T22:35:12.423Z,102739.39
2019-03-21T22:37:41.111Z,102734.56
2019-03-21T22:40:12.258Z,102740.66
2019-03-21T22:42:41.042Z,102747.42
2019-03-21T22:45:14.712Z,102744.74
2019-03-21T22:47:43.327Z,102739.71
2019-03-21T22:50:16.345Z,102738.34
2019-03-21T22:52:46.024Z,102736.34
2019-03-21T22:55:14.821Z,102733.30
2019-03-21T22:57:43.703Z,102734.02
2019-03-21T23:00:18.019Z,102743.63
2019-03-21T23:02:46.816Z,102738.73
2019-03-21T23:05:15.904Z,102735.07
2019-03-21T23:07:44.693Z,102740.41
2019-03-21T23:10:13.901Z,102731.61
2019-03-21T23:12:42.997Z,102746.35
2019-03-21T23:15:13.004Z,102749.28
2019-03-21T23:17:41.791Z,102742.27
2019-03-21T23:20:12.697Z,102741.52
2019-03-21T23:22:41.420Z,102743.88
2019-03-21T23:25:11.534Z,102742.91
2019-03-21T23:27:40.324Z,102744.69
2019-03-21T23:30:16.790Z,102745.53
2019-03-21T23:32:45.597Z,102741.06
2019-03-21T23:35:15.194Z,102731.66
2019-03-21T23:37:43.975Z,102736.35
2019-03-21T23:40:14.400Z,102728.59
2019-03-21T23:42:43.200Z,102730.66
2019-03-21T23:45:13.413Z,102729.30
2019-03-21T23:47:42.208Z,102731.41
2019-03-21T23:50:12.410Z,102734.31
2019-03-21T23:52:41.208Z,102727.72
2019-03-21T23:55:10.611Z,102726.94
2019-03-21T23:57:39.402Z,102724.35
